Time;durP1;ratioP1;P1;durP2;ratioP2;P2;SDS_P1;SDS_P2;PMS_P1;PMS_P2;Temp;Humidity;BMP_temperature;BMP_pressure;BME280_temperature;BME280_humidity;BME280_pressure;Samples;Min_cycle;Max_cycle;Signal;HPM_P1;HPM_P2
2021/05/16 00:01:12;;;;;;;2.72;1.95;;;20.20;50.20;;;;;;3145628;28;20051;-77
2021/05/16 00:02:44;;;;;;;2.03;1.83;;;20.10;50.20;;;;;;3146470;28;20080;-77
2021/05/16 00:04:15;;;;;;;1.75;1.60;;;20.20;50.30;;;;;;3146036;28;20778;-77
2021/05/16 00:05:46;;;;;;;2.05;1.85;;;20.20;50.30;;;;;;3146374;28;20049;-77
2021/05/16 00:07:17;;;;;;;1.92;1.73;;;20.20;50.30;;;;;;3146491;28;20075;-76
2021/05/16 00:08:48;;;;;;;1.70;1.60;;;20.20;50.30;;;;;;3145979;28;20040;-77
2021/05/16 00:10:20;;;;;;;3.17;1.85;;;20.20;50.30;;;;;;3146230;28;20090;-77
2021/05/16 00:11:51;;;;;;;1.80;1.60;;;20.20;50.30;;;;;;3146630;28;20098;-77
2021/05/16 00:13:22;;;;;;;2.15;1.80;;;20.20;50.20;;;;;;3146093;28;20036;-77
2021/05/16 00:14:53;;;;;;;1.88;1.58;;;20.20;50.20;;;;;;3146391;28;20053;-77
2021/05/16 00:16:25;;;;;;;2.58;2.15;;;20.10;50.20;;;;;;3145835;28;20041;-77
2021/05/16 00:17:57;;;;;;;1.80;1.70;;;20.20;50.30;;;;;;3146231;28;20416;-78
2021/05/16 00:19:27;;;;;;;1.83;1.70;;;20.10;50.20;;;;;;3146525;28;20580;-77
2021/05/16 00:20:58;;;;;;;2.00;1.80;;;20.20;50.20;;;;;;3146106;28;20049;-77
2021/05/16 00:22:29;;;;;;;1.90;1.70;;;20.20;50.20;;;;;;3146534;28;20053;-78
2021/05/16 00:24:00;;;;;;;2.00;1.80;;;20.20;50.20;;;;;;3145822;28;20044;-77
2021/05/16 00:25:32;;;;;;;1.80;1.70;;;20.20;50.20;;;;;;3146336;28;20437;-79
2021/05/16 00:27:02;;;;;;;1.80;1.70;;;20.20;50.20;;;;;;3146317;28;20048;-77
2021/05/16 00:28:34;;;;;;;1.80;1.70;;;20.20;50.20;;;;;;3145922;28;20036;-78
2021/05/16 00:30:06;;;;;;;1.70;1.60;;;20.10;50.20;;;;;;3146042;28;20048;-77
2021/05/16 00:31:37;;;;;;;1.80;1.65;;;20.20;50.20;;;;;;3147097;28;20052;-77
2021/05/16 00:33:09;;;;;;;3.00;1.80;;;20.20;50.20;;;;;;3146981;28;20493;-78
2021/05/16 00:34:39;;;;;;;2.03;1.83;;;20.20;50.20;;;;;;3146341;28;20056;-77
2021/05/16 00:36:10;;;;;;;1.52;1.42;;;20.20;50.20;;;;;;3146435;28;20044;-78
2021/05/16 00:37:41;;;;;;;2.28;1.90;;;20.20;50.20;;;;;;3146165;28;20048;-77
2021/05/16 00:39:12;;;;;;;1.40;1.30;;;20.20;50.20;;;;;;3146017;28;20048;-79
2021/05/16 00:40:44;;;;;;;1.60;1.50;;;20.20;50.30;;;;;;3145992;28;20368;-77
2021/05/16 00:42:14;;;;;;;1.80;1.70;;;20.10;50.20;;;;;;3146265;28;20060;-77
2021/05/16 00:43:45;;;;;;;2.05;1.75;;;20.20;50.20;;;;;;3145768;28;20089;-78
2021/05/16 00:45:18;;;;;;;2.35;1.70;;;20.20;50.10;;;;;;3145317;28;20068;-78
2021/05/16 00:46:49;;;;;;;1.80;1.65;;;20.20;50.10;;;;;;3146125;28;20056;-77
2021/05/16 00:48:21;;;;;;;2.08;1.80;;;20.20;50.10;;;;;;3145887;28;20091;-76
2021/05/16 00:49:52;;;;;;;1.83;1.67;;;20.20;50.10;;;;;;3145901;28;20179;-77
2021/05/16 00:51:23;;;;;;;1.80;1.70;;;20.20;50.20;;;;;;3146429;28;20508;-76
2021/05/16 00:52:54;;;;;;;1.60;1.50;;;20.20;50.30;;;;;;3146178;28;20056;-77
2021/05/16 00:54:25;;;;;;;2.03;1.77;;;20.10;50.20;;;;;;3145969;28;20049;-77
2021/05/16 00:55:57;;;;;;;1.98;1.73;;;20.10;50.20;;;;;;3146158;28;20045;-76
2021/05/16 00:57:28;;;;;;;1.55;1.45;;;20.10;50.20;;;;;;3146192;28;20056;-76
2021/05/16 00:58:59;;;;;;;1.98;1.73;;;20.20;50.30;;;;;;3145716;28;20048;-77
2021/05/16 01:00:32;;;;;;;2.00;1.70;;;20.20;50.20;;;;;;3145296;28;20663;-78
2021/05/16 01:02:03;;;;;;;2.22;1.55;;;20.20;50.20;;;;;;3146389;28;20068;-79
2021/05/16 01:03:35;;;;;;;1.52;1.40;;;20.10;50.20;;;;;;3145583;28;20045;-77
2021/05/16 01:05:08;;;;;;;2.00;1.63;;;20.20;50.10;;;;;;3146063;28;20044;-77
2021/05/16 01:06:39;;;;;;;2.50;1.70;;;20.20;50.20;;;;;;3145872;28;20827;-77
2021/05/16 01:08:10;;;;;;;1.77;1.67;;;20.20;50.20;;;;;;3145896;28;20044;-77
2021/05/16 01:09:41;;;;;;;1.83;1.73;;;20.20;50.20;;;;;;3148027;28;20055;-77
2021/05/16 01:11:12;;;;;;;2.42;1.75;;;20.20;50.20;;;;;;3148611;28;20052;-77
2021/05/16 01:12:45;;;;;;;1.63;1.45;;;20.20;50.20;;;;;;3148628;28;20060;-77
2021/05/16 01:14:22;;;;;;;1.60;1.50;;;20.20;50.20;;;;;;3148084;28;20049;-77
2021/05/16 01:15:53;;;;;;;2.00;1.70;;;20.20;50.20;;;;;;3147830;28;20048;-78
2021/05/16 01:17:24;;;;;;;1.70;1.60;;;20.10;50.10;;;;;;3148603;28;20420;-78
2021/05/16 01:18:56;;;;;;;1.60;1.50;;;20.10;50.20;;;;;;3148005;28;20055;-77
2021/05/16 01:20:29;;;;;;;1.73;1.60;;;20.10;50.20;;;;;;3148508;28;20056;-76
2021/05/16 01:22:01;;;;;;;1.65;1.55;;;20.10;50.20;;;;;;3148519;28;20110;-78
2021/05/16 01:23:36;;;;;;;2.10;1.55;;;20.10;50.20;;;;;;3147891;28;20056;-77
2021/05/16 01:25:07;;;;;;;1.45;1.35;;;20.10;50.20;;;;;;3148656;28;20560;-77
2021/05/16 01:26:38;;;;;;;1.55;1.45;;;20.10;50.20;;;;;;3148380;28;20047;-77
2021/05/16 01:28:11;;;;;;;1.65;1.55;;;20.10;50.20;;;;;;3147891;28;20079;-77
2021/05/16 01:29:41;;;;;;;1.60;1.50;;;20.10;50.20;;;;;;3148224;28;20059;-77
2021/05/16 01:31:13;;;;;;;1.63;1.52;;;20.10;50.20;;;;;;3147738;28;20278;-77
2021/05/16 01:32:44;;;;;;;1.73;1.42;;;20.10;50.10;;;;;;3148237;28;20052;-76
2021/05/16 01:34:15;;;;;;;1.63;1.52;;;20.20;50.30;;;;;;3147654;28;20045;-77
2021/05/16 01:35:46;;;;;;;1.80;1.58;;;20.10;50.20;;;;;;3148420;28;20048;-77
2021/05/16 01:37:18;;;;;;;1.60;1.50;;;20.10;50.20;;;;;;3148190;28;20044;-78
2021/05/16 01:38:49;;;;;;;1.63;1.52;;;20.10;50.20;;;;;;3147816;28;20048;-78
2021/05/16 01:40:21;;;;;;;1.67;1.50;;;20.10;50.20;;;;;;3148023;28;20040;-76
2021/05/16 01:41:52;;;;;;;1.60;1.50;;;20.10;50.20;;;;;;3148284;28;20052;-78
2021/05/16 01:43:23;;;;;;;1.73;1.63;;;20.10;50.20;;;;;;3147792;28;20049;-77
2021/05/16 01:44:57;;;;;;;3.60;1.70;;;20.10;50.20;;;;;;3148083;28;20098;-77
2021/05/16 01:46:28;;;;;;;1.60;1.50;;;20.10;50.20;;;;;;3147194;28;20493;-78
2021/05/16 01:47:59;;;;;;;1.60;1.50;;;20.10;50.20;;;;;;3147837;28;20052;-77
2021/05/16 01:49:32;;;;;;;1.50;1.40;;;20.10;50.20;;;;;;3148137;28;20064;-78
2021/05/16 01:51:04;;;;;;;1.60;1.50;;;20.10;50.20;;;;;;3147980;28;20040;-76
2021/05/16 01:52:36;;;;;;;1.58;1.48;;;20.10;50.20;;;;;;3148032;28;20064;-77
2021/05/16 01:54:08;;;;;;;1.45;1.35;;;20.20;50.20;;;;;;3147653;28;20424;-76
2021/05/16 01:55:39;;;;;;;1.52;1.40;;;20.10;50.10;;;;;;3148066;28;20504;-78
2021/05/16 01:57:10;;;;;;;1.35;1.25;;;20.10;50.10;;;;;;3148052;28;20057;-77
2021/05/16 01:58:41;;;;;;;1.58;1.40;;;20.10;50.10;;;;;;3147457;28;20048;-77
2021/05/16 02:00:15;;;;;;;1.35;1.23;;;20.20;50.10;;;;;;3147283;28;20442;-77
2021/05/16 02:01:46;;;;;;;1.60;1.50;;;20.10;50.10;;;;;;3147916;28;20056;-77
2021/05/16 02:03:17;;;;;;;1.42;1.33;;;20.10;50.10;;;;;;3147601;28;20048;-78
2021/05/16 02:04:49;;;;;;;1.60;1.50;;;20.10;50.20;;;;;;3148066;28;20098;-77
2021/05/16 02:06:20;;;;;;;1.55;1.40;;;20.10;50.20;;;;;;3147855;28;20044;-77
2021/05/16 02:07:52;;;;;;;1.77;1.60;;;20.10;50.10;;;;;;3147926;28;20049;-77
2021/05/16 02:09:23;;;;;;;1.35;1.25;;;20.10;50.10;;;;;;3147555;28;20051;-77
2021/05/16 02:10:54;;;;;;;2.33;1.50;;;20.10;50.10;;;;;;3147844;28;20048;-77
2021/05/16 02:12:27;;;;;;;1.63;1.33;;;20.10;50.20;;;;;;3147886;28;20053;-78
2021/05/16 02:13:58;;;;;;;1.40;1.30;;;20.10;50.10;;;;;;3147439;28;20048;-77
2021/05/16 02:15:29;;;;;;;1.58;1.35;;;20.10;50.20;;;;;;3147255;28;20094;-77
2021/05/16 02:17:01;;;;;;;1.63;1.25;;;20.10;50.10;;;;;;3148020;28;20055;-77
2021/05/16 02:18:32;;;;;;;1.60;1.50;;;20.10;50.10;;;;;;3147263;28;20047;-77
2021/05/16 02:20:04;;;;;;;1.65;1.30;;;20.10;50.10;;;;;;3147415;28;20670;-77
2021/05/16 02:21:35;;;;;;;1.58;1.48;;;20.10;50.20;;;;;;3147607;28;20049;-77
2021/05/16 02:23:07;;;;;;;1.40;1.30;;;20.10;50.20;;;;;;3147515;28;20488;-77
2021/05/16 02:24:38;;;;;;;1.70;1.60;;;20.10;50.20;;;;;;3147640;28;20417;-77
2021/05/16 02:26:09;;;;;;;1.90;1.50;;;20.10;50.10;;;;;;3147877;28;20052;-77
2021/05/16 02:27:40;;;;;;;1.48;1.38;;;20.10;50.10;;;;;;3147825;28;20051;-78
2021/05/16 02:29:11;;;;;;;1.38;1.27;;;20.10;50.10;;;;;;3147330;28;20040;-77
2021/05/16 02:30:42;;;;;;;1.40;1.30;;;20.10;50.10;;;;;;3146591;28;20094;-77
2021/05/16 02:32:13;;;;;;;1.45;1.35;;;20.10;50.10;;;;;;3147797;28;20528;-77
2021/05/16 02:33:44;;;;;;;1.40;1.30;;;20.10;50.10;;;;;;3147266;28;20432;-77
2021/05/16 02:35:15;;;;;;;1.75;1.40;;;20.10;50.10;;;;;;3147437;28;20044;-77
2021/05/16 02:36:46;;;;;;;1.50;1.40;;;20.10;50.10;;;;;;3147505;28;20496;-78
2021/05/16 02:38:18;;;;;;;1.38;1.27;;;20.10;50.10;;;;;;3147011;28;20040;-77
2021/05/16 02:39:49;;;;;;;1.50;1.40;;;20.10;50.10;;;;;;3147338;28;20057;-76
2021/05/16 02:41:20;;;;;;;2.58;1.40;;;20.10;50.10;;;;;;3147619;28;20056;-77
2021/05/16 02:42:51;;;;;;;1.60;1.40;;;20.10;50.10;;;;;;3147506;28;20060;-77
2021/05/16 02:44:22;;;;;;;1.30;1.20;;;20.10;50.10;;;;;;3146980;28;20045;-78
2021/05/16 02:45:53;;;;;;;1.90;1.35;;;20.10;50.10;;;;;;3146692;28;20045;-77
2021/05/16 02:47:25;;;;;;;1.30;1.20;;;20.10;50.10;;;;;;3147407;28;20048;-77
2021/05/16 02:48:55;;;;;;;1.75;1.30;;;20.10;50.10;;;;;;3147182;28;20044;-76
2021/05/16 02:50:26;;;;;;;1.40;1.30;;;20.10;50.10;;;;;;3149472;28;20055;-76
2021/05/16 02:51:57;;;;;;;1.90;1.20;;;20.10;50.10;;;;;;3148125;28;20056;-76
2021/05/16 02:53:29;;;;;;;1.35;1.25;;;20.10;50.10;;;;;;3147878;28;20102;-76
2021/05/16 02:55:00;;;;;;;1.27;1.15;;;20.10;50.10;;;;;;3148198;28;20048;-77
2021/05/16 02:56:31;;;;;;;1.50;1.40;;;20.10;50.10;;;;;;3148418;28;20075;-76
2021/05/16 02:58:02;;;;;;;1.20;1.10;;;20.10;50.10;;;;;;3147421;28;20056;-76
2021/05/16 02:59:33;;;;;;;1.40;1.30;;;20.10;50.10;;;;;;3147242;28;20049;-75
2021/05/16 03:01:04;;;;;;;1.60;1.45;;;20.10;50.10;;;;;;3146453;28;20063;-76
2021/05/16 03:02:35;;;;;;;1.45;1.35;;;20.10;50.10;;;;;;3147332;28;20059;-76
2021/05/16 03:04:07;;;;;;;1.30;1.20;;;20.10;50.10;;;;;;3146764;28;20044;-77
2021/05/16 03:05:38;;;;;;;1.30;1.20;;;20.10;50.10;;;;;;3147233;28;20425;-76
2021/05/16 03:07:09;;;;;;;1.30;1.20;;;20.10;50.10;;;;;;3147398;28;20048;-76
2021/05/16 03:08:41;;;;;;;1.30;1.20;;;20.10;50.10;;;;;;3146686;28;20067;-76
2021/05/16 03:10:12;;;;;;;1.95;1.40;;;20.10;50.10;;;;;;3146947;28;20056;-76
2021/05/16 03:11:43;;;;;;;1.55;1.30;;;20.10;50.10;;;;;;3147183;28;20433;-76
2021/05/16 03:13:14;;;;;;;1.30;1.20;;;20.10;50.10;;;;;;3147024;28;20049;-76
2021/05/16 03:14:45;;;;;;;1.58;1.30;;;20.10;50.10;;;;;;3147043;28;20060;-76
2021/05/16 03:16:16;;;;;;;1.30;1.20;;;20.10;50.10;;;;;;3146451;28;20045;-76
2021/05/16 03:17:47;;;;;;;1.20;1.10;;;20.10;50.10;;;;;;3147128;28;20057;-76
2021/05/16 03:19:18;;;;;;;2.20;1.30;;;20.10;50.10;;;;;;3146697;28;20055;-77
2021/05/16 03:20:49;;;;;;;1.35;1.25;;;20.10;50.10;;;;;;3146836;28;20040;-76
2021/05/16 03:22:20;;;;;;;1.13;1.02;;;20.20;50.10;;;;;;3147066;28;20639;-77
2021/05/16 03:23:52;;;;;;;1.60;1.33;;;20.10;50.60;;;;;;3146613;28;20044;-76
2021/05/16 03:25:23;;;;;;;1.23;1.13;;;20.10;50.00;;;;;;3147089;28;20056;-76
2021/05/16 03:26:55;;;;;;;1.40;1.30;;;20.10;50.00;;;;;;3146791;28;20041;-76
2021/05/16 03:28:26;;;;;;;1.45;1.35;;;20.10;50.10;;;;;;3146552;28;20037;-76
2021/05/16 03:29:57;;;;;;;1.52;1.30;;;20.10;50.10;;;;;;3146949;28;20053;-77
2021/05/16 03:31:28;;;;;;;1.30;1.13;;;20.10;50.10;;;;;;3145329;28;20052;-76
2021/05/16 03:32:59;;;;;;;1.30;1.20;;;20.10;50.00;;;;;;3146557;28;20652;-76
2021/05/16 03:34:30;;;;;;;1.10;1.00;;;20.10;50.10;;;;;;3146734;28;20044;-76
2021/05/16 03:36:01;;;;;;;1.30;1.20;;;20.10;50.10;;;;;;3146988;28;20059;-76
2021/05/16 03:37:32;;;;;;;1.17;1.08;;;20.10;50.10;;;;;;3146748;28;20048;-76
2021/05/16 03:39:05;;;;;;;1.20;1.10;;;20.10;50.10;;;;;;3146431;28;20496;-76
2021/05/16 03:40:36;;;;;;;1.30;1.20;;;20.10;50.10;;;;;;3146709;28;20067;-76
2021/05/16 03:42:07;;;;;;;1.30;1.20;;;20.10;50.10;;;;;;3146793;28;20055;-76
2021/05/16 03:43:38;;;;;;;1.30;1.20;;;20.10;50.10;;;;;;3146208;28;20404;-76
2021/05/16 03:45:11;;;;;;;1.63;1.10;;;20.10;50.10;;;;;;3145686;28;20052;-76
2021/05/16 03:46:42;;;;;;;1.30;1.15;;;20.10;50.10;;;;;;3146863;28;20448;-76
2021/05/16 03:48:13;;;;;;;1.55;1.00;;;20.10;50.10;;;;;;3146478;28;20052;-77
2021/05/16 03:49:44;;;;;;;1.40;1.30;;;20.10;50.10;;;;;;3146486;28;20044;-76
2021/05/16 03:51:15;;;;;;;1.20;1.10;;;20.10;50.10;;;;;;3146864;28;20052;-76
2021/05/16 03:52:46;;;;;;;1.30;1.20;;;20.10;50.10;;;;;;3146642;28;20098;-77
2021/05/16 03:54:17;;;;;;;1.30;1.20;;;20.10;50.10;;;;;;3146056;28;20573;-76
2021/05/16 03:55:48;;;;;;;1.17;1.08;;;20.10;50.10;;;;;;3146594;28;20070;-76
2021/05/16 03:57:22;;;;;;;1.40;1.25;;;20.10;50.10;;;;;;3146676;28;20044;-76
2021/05/16 03:58:53;;;;;;;1.27;1.05;;;20.10;50.10;;;;;;3146163;28;20051;-76
2021/05/16 04:00:24;;;;;;;1.25;1.13;;;20.10;50.10;;;;;;3145810;28;20048;-78
2021/05/16 04:01:55;;;;;;;1.40;1.30;;;20.10;50.10;;;;;;3146570;28;20228;-77
2021/05/16 04:03:26;;;;;;;1.30;1.20;;;20.10;50.20;;;;;;3146213;28;20037;-77
2021/05/16 04:04:57;;;;;;;1.27;1.17;;;20.10;50.10;;;;;;3146446;28;20492;-76
2021/05/16 04:06:28;;;;;;;1.30;1.20;;;20.10;50.10;;;;;;3146368;28;20040;-76
2021/05/16 04:07:59;;;;;;;1.15;1.05;;;20.10;50.10;;;;;;3146277;28;20472;-76
2021/05/16 04:09:31;;;;;;;1.30;1.20;;;20.10;50.10;;;;;;3146777;28;20076;-77
2021/05/16 04:11:02;;;;;;;1.25;1.05;;;20.10;50.10;;;;;;3146329;28;20562;-76
2021/05/16 04:12:33;;;;;;;1.33;1.10;;;20.10;50.10;;;;;;3146392;28;20048;-76
2021/05/16 04:14:05;;;;;;;1.17;1.10;;;20.10;50.10;;;;;;3146004;28;20051;-77
2021/05/16 04:15:36;;;;;;;1.03;0.97;;;20.10;50.10;;;;;;3145770;28;20045;-76
2021/05/16 04:17:07;;;;;;;1.20;1.10;;;20.10;50.10;;;;;;3146495;28;20075;-77
2021/05/16 04:18:38;;;;;;;1.25;1.10;;;20.10;50.10;;;;;;3145950;28;20074;-76
2021/05/16 04:20:10;;;;;;;1.08;0.98;;;20.10;50.10;;;;;;3146408;28;20049;-77
2021/05/16 04:21:42;;;;;;;1.20;1.10;;;20.10;50.10;;;;;;3146276;28;20697;-77
2021/05/16 04:23:13;;;;;;;1.30;1.20;;;20.10;50.10;;;;;;3146128;28;20060;-76
2021/05/16 04:24:44;;;;;;;1.17;1.08;;;20.10;50.00;;;;;;3146460;28;20048;-76
2021/05/16 04:26:15;;;;;;;1.75;1.20;;;20.10;50.00;;;;;;3146470;28;20049;-76
2021/05/16 04:27:46;;;;;;;1.20;1.10;;;20.10;50.00;;;;;;3146166;28;20542;-76
2021/05/16 04:29:17;;;;;;;1.13;1.00;;;20.10;50.00;;;;;;3145915;28;20048;-77
2021/05/16 04:30:49;;;;;;;1.30;1.17;;;20.10;50.00;;;;;;3145268;28;20055;-76
2021/05/16 04:32:20;;;;;;;1.10;1.00;;;20.10;50.00;;;;;;3146376;28;20048;-76
2021/05/16 04:33:51;;;;;;;1.08;0.98;;;20.10;50.00;;;;;;3145821;28;20094;-76
2021/05/16 04:35:22;;;;;;;1.20;1.10;;;20.10;50.10;;;;;;3146437;28;20052;-76
2021/05/16 04:36:53;;;;;;;1.50;1.20;;;20.10;50.10;;;;;;3146418;28;20186;-76
2021/05/16 04:38:24;;;;;;;0.98;0.88;;;20.10;50.10;;;;;;3145986;28;20040;-76
2021/05/16 04:39:56;;;;;;;2.38;1.10;;;20.10;50.10;;;;;;3146022;28;20056;-76
2021/05/16 04:41:27;;;;;;;1.25;1.15;;;20.10;50.10;;;;;;3146381;28;20048;-76
2021/05/16 04:42:59;;;;;;;1.10;0.95;;;20.10;50.10;;;;;;3145757;28;20056;-76
2021/05/16 04:44:30;;;;;;;1.10;1.00;;;20.10;50.10;;;;;;3146037;28;20055;-76
2021/05/16 04:46:01;;;;;;;1.30;1.20;;;20.10;50.10;;;;;;3145079;28;20044;-76
2021/05/16 04:47:32;;;;;;;1.15;0.90;;;20.10;50.10;;;;;;3146258;28;20064;-76
2021/05/16 04:49:03;;;;;;;1.23;1.10;;;20.10;50.10;;;;;;3145863;28;20098;-76
2021/05/16 04:50:34;;;;;;;1.10;1.00;;;20.10;50.10;;;;;;3145904;28;20059;-76
2021/05/16 04:52:05;;;;;;;1.15;1.05;;;20.10;50.10;;;;;;3146206;28;20071;-76
2021/05/16 04:53:37;;;;;;;1.30;1.20;;;20.10;50.10;;;;;;3145580;28;20567;-77
2021/05/16 04:55:10;;;;;;;1.30;1.20;;;20.10;50.10;;;;;;3146320;28;20044;-76
2021/05/16 04:56:41;;;;;;;;;;;20.10;50.10;;;;;;3146439;28;20049;-76
2021/05/16 04:58:12;;;;;;;1.25;1.15;;;20.10;50.10;;;;;;3145565;28;19921;-76
2021/05/16 04:59:46;;;;;;;0.95;0.90;;;20.10;50.10;;;;;;3145882;28;20504;-76
2021/05/16 05:01:17;;;;;;;1.25;1.08;;;20.10;50.10;;;;;;3145557;28;20179;-76
2021/05/16 05:02:48;;;;;;;1.15;0.90;;;20.10;50.10;;;;;;3146035;28;20060;-76
2021/05/16 05:04:19;;;;;;;1.50;1.10;;;20.10;50.10;;;;;;3145529;28;20062;-76
2021/05/16 05:05:52;;;;;;;1.20;1.10;;;20.10;50.00;;;;;;3146133;28;20048;-76
2021/05/16 05:07:22;;;;;;;1.35;1.10;;;20.10;50.10;;;;;;3145971;28;20048;-76
2021/05/16 05:08:53;;;;;;;1.20;1.05;;;20.10;50.10;;;;;;3145607;28;20086;-76
2021/05/16 05:10:25;;;;;;;1.40;1.15;;;20.10;50.10;;;;;;3145927;28;20519;-77
2021/05/16 05:11:56;;;;;;;0.95;0.90;;;20.10;50.10;;;;;;3146252;28;20177;-76
2021/05/16 05:13:28;;;;;;;1.05;0.90;;;20.10;50.00;;;;;;3145913;28;20041;-77
2021/05/16 05:14:59;;;;;;;1.08;0.98;;;20.10;50.00;;;;;;3146905;28;20044;-77
2021/05/16 05:16:30;;;;;;;1.20;1.10;;;20.10;50.00;;;;;;3145911;28;20040;-76
2021/05/16 05:18:01;;;;;;;1.25;1.00;;;20.10;50.00;;;;;;3146437;28;20409;-77
2021/05/16 05:19:32;;;;;;;1.30;1.13;;;20.10;50.00;;;;;;3145755;28;20059;-78
2021/05/16 05:21:04;;;;;;;1.30;0.95;;;20.10;50.00;;;;;;3145987;28;20505;-77
2021/05/16 05:22:34;;;;;;;1.10;1.00;;;20.10;50.10;;;;;;3145971;28;20087;-76
2021/05/16 05:24:07;;;;;;;1.20;1.00;;;20.10;50.10;;;;;;3145372;28;20044;-78
2021/05/16 05:25:39;;;;;;;1.02;1.00;;;20.10;50.10;;;;;;3145989;28;20060;-77
2021/05/16 05:27:10;;;;;;;1.48;1.10;;;20.10;50.10;;;;;;3145955;28;20059;-76
2021/05/16 05:28:41;;;;;;;1.30;1.10;;;20.10;50.10;;;;;;3145476;28;20041;-76
2021/05/16 05:30:13;;;;;;;0.90;0.90;;;20.10;50.10;;;;;;3144929;28;20428;-76
2021/05/16 05:31:45;;;;;;;1.17;1.00;;;20.10;50.10;;;;;;3146072;28;20102;-76
2021/05/16 05:33:18;;;;;;;1.20;1.05;;;20.10;50.10;;;;;;3145680;28;20503;-76
2021/05/16 05:34:49;;;;;;;0.85;0.85;;;20.10;50.10;;;;;;3145943;28;20651;-76
2021/05/16 05:36:20;;;;;;;0.85;0.85;;;20.10;50.10;;;;;;3145965;28;20044;-76
2021/05/16 05:37:51;;;;;;;1.20;1.02;;;20.10;50.10;;;;;;3145853;28;20497;-76
2021/05/16 05:39:22;;;;;;;1.02;0.93;;;20.10;50.10;;;;;;3145478;28;20063;-77
2021/05/16 05:40:54;;;;;;;1.05;0.90;;;20.10;50.20;;;;;;3145848;28;20056;-76
2021/05/16 05:42:26;;;;;;;1.65;1.05;;;20.10;50.10;;;;;;3145874;28;20056;-77
2021/05/16 05:43:57;;;;;;;1.10;1.00;;;20.10;50.10;;;;;;3145226;28;20044;-76
2021/05/16 05:45:28;;;;;;;1.65;1.00;;;20.10;50.10;;;;;;3145165;28;20158;-77
2021/05/16 05:47:00;;;;;;;1.10;1.00;;;20.10;50.20;;;;;;3145736;28;20130;-76
2021/05/16 05:48:31;;;;;;;1.83;1.17;;;20.10;50.20;;;;;;3145435;28;20389;-76
2021/05/16 05:50:02;;;;;;;1.25;0.95;;;20.10;50.20;;;;;;3145568;28;20048;-76
2021/05/16 05:51:33;;;;;;;0.95;0.90;;;20.10;50.80;;;;;;3145963;28;20095;-76
2021/05/16 05:53:04;;;;;;;1.23;1.13;;;20.10;50.20;;;;;;3145312;28;20052;-76
2021/05/16 05:54:37;;;;;;;0.80;0.80;;;20.10;50.20;;;;;;3145881;28;20052;-76
2021/05/16 05:56:09;;;;;;;1.00;0.90;;;20.10;50.20;;;;;;3148429;28;20390;-76
2021/05/16 05:57:41;;;;;;;1.20;1.10;;;20.10;50.20;;;;;;3147903;28;20048;-77
2021/05/16 05:59:13;;;;;;;1.15;1.00;;;20.10;50.20;;;;;;3147469;28;20428;-76
2021/05/16 06:00:44;;;;;;;1.23;0.85;;;20.10;50.10;;;;;;3146927;28;20554;-77
2021/05/16 06:02:15;;;;;;;1.00;0.90;;;20.10;50.10;;;;;;3148183;28;20048;-76
2021/05/16 06:03:48;;;;;;;0.80;0.80;;;20.10;50.10;;;;;;3147523;28;20051;-76
2021/05/16 06:05:19;;;;;;;1.05;0.98;;;20.10;50.10;;;;;;3147998;28;20757;-76
2021/05/16 06:06:51;;;;;;;1.00;0.90;;;20.10;50.10;;;;;;3147464;28;20045;-76
2021/05/16 06:08:22;;;;;;;1.52;0.98;;;20.10;50.10;;;;;;3147623;28;20493;-76
2021/05/16 06:09:53;;;;;;;1.10;1.00;;;20.10;50.20;;;;;;3147563;28;20044;-76
2021/05/16 06:11:25;;;;;;;1.02;0.90;;;20.10;50.20;;;;;;3147949;28;20048;-76
2021/05/16 06:12:56;;;;;;;0.98;0.93;;;20.10;50.10;;;;;;3147470;28;20056;-77
2021/05/16 06:14:27;;;;;;;0.90;0.90;;;20.10;50.10;;;;;;3148021;28;20055;-76
2021/05/16 06:15:58;;;;;;;1.13;0.95;;;20.10;50.20;;;;;;3147148;28;20044;-76
2021/05/16 06:17:29;;;;;;;1.15;1.05;;;20.10;50.10;;;;;;3147805;28;20094;-76
2021/05/16 06:19:00;;;;;;;1.70;1.10;;;20.10;50.10;;;;;;3147379;28;20425;-77
2021/05/16 06:20:31;;;;;;;0.68;0.68;;;20.10;50.00;;;;;;3147404;28;20059;-76
2021/05/16 06:22:02;;;;;;;0.93;0.90;;;20.10;50.10;;;;;;3147727;28;20465;-76
2021/05/16 06:23:36;;;;;;;1.00;0.90;;;20.10;50.10;;;;;;3147184;28;20052;-76
2021/05/16 06:25:08;;;;;;;1.15;1.00;;;20.20;50.10;;;;;;3147918;28;20664;-76
2021/05/16 06:26:42;;;;;;;1.00;0.90;;;20.20;50.10;;;;;;3147570;28;20045;-77
2021/05/16 06:28:13;;;;;;;1.00;0.90;;;20.20;50.20;;;;;;3147322;28;20078;-76
2021/05/16 06:29:44;;;;;;;0.88;0.88;;;20.10;50.10;;;;;;3147443;28;20049;-77
2021/05/16 06:31:15;;;;;;;1.08;0.88;;;20.10;50.10;;;;;;3146788;28;20044;-76
2021/05/16 06:32:46;;;;;;;0.80;0.80;;;20.20;50.10;;;;;;3147401;28;20107;-76
2021/05/16 06:34:17;;;;;;;1.05;0.95;;;20.20;50.10;;;;;;3147016;28;20049;-76
2021/05/16 06:35:48;;;;;;;0.93;0.90;;;20.20;50.10;;;;;;3147808;28;20551;-77
2021/05/16 06:37:20;;;;;;;1.15;1.05;;;20.20;50.10;;;;;;3147808;28;20048;-76
2021/05/16 06:38:51;;;;;;;0.80;0.80;;;20.10;50.10;;;;;;3147019;28;20050;-77
2021/05/16 06:40:22;;;;;;;1.30;0.90;;;20.10;50.10;;;;;;3147404;28;20056;-76
2021/05/16 06:41:54;;;;;;;0.80;0.80;;;20.10;50.20;;;;;;3147421;28;20078;-77
2021/05/16 06:43:25;;;;;;;1.65;0.85;;;20.10;50.20;;;;;;3147236;28;20184;-76
2021/05/16 06:44:56;;;;;;;1.02;0.90;;;20.10;50.20;;;;;;3147338;28;20052;-76
2021/05/16 06:46:27;;;;;;;1.00;0.90;;;20.20;50.10;;;;;;3146655;28;20099;-77
2021/05/16 06:47:58;;;;;;;1.00;0.90;;;20.20;50.20;;;;;;3147181;28;20497;-76
2021/05/16 06:49:29;;;;;;;1.08;0.90;;;20.10;50.10;;;;;;3147413;28;20044;-77
2021/05/16 06:51:00;;;;;;;0.95;0.88;;;20.20;50.20;;;;;;3147304;28;20059;-76
2021/05/16 06:52:31;;;;;;;1.00;0.90;;;20.10;50.20;;;;;;3147411;28;20044;-77
2021/05/16 06:54:03;;;;;;;1.23;0.90;;;20.10;50.10;;;;;;3147065;28;20056;-76
2021/05/16 06:55:34;;;;;;;0.80;0.80;;;20.20;50.10;;;;;;3147368;28;20036;-76
2021/05/16 06:57:06;;;;;;;0.80;0.80;;;20.20;50.10;;;;;;3147330;28;20045;-76
2021/05/16 06:58:37;;;;;;;0.80;0.80;;;20.20;50.20;;;;;;3146833;28;20470;-76
2021/05/16 07:00:09;;;;;;;2.45;0.90;;;20.10;50.20;;;;;;3146502;28;20094;-76
2021/05/16 07:01:41;;;;;;;0.70;0.70;;;20.10;50.20;;;;;;3147227;28;20053;-76
2021/05/16 07:03:12;;;;;;;1.23;0.80;;;20.10;50.20;;;;;;3146930;28;20049;-77
2021/05/16 07:04:44;;;;;;;0.90;0.85;;;20.10;50.20;;;;;;3147430;28;20051;-76
2021/05/16 07:06:15;;;;;;;0.93;0.85;;;20.10;50.20;;;;;;3146481;28;20049;-77
2021/05/16 07:07:46;;;;;;;0.90;0.80;;;20.20;50.10;;;;;;3146887;28;20505;-76
2021/05/16 07:09:17;;;;;;;1.00;0.90;;;20.20;50.20;;;;;;3146725;28;20048;-77
2021/05/16 07:10:48;;;;;;;1.25;0.90;;;20.20;50.20;;;;;;3147122;28;20059;-76
2021/05/16 07:12:20;;;;;;;0.80;0.80;;;20.10;50.20;;;;;;3147137;28;20087;-76
2021/05/16 07:13:51;;;;;;;0.80;0.80;;;20.10;50.20;;;;;;3146667;28;20575;-76
2021/05/16 07:15:22;;;;;;;0.85;0.80;;;20.10;50.30;;;;;;3146590;28;20101;-76
2021/05/16 07:16:53;;;;;;;0.82;0.80;;;20.10;50.30;;;;;;3147268;28;20049;-76
2021/05/16 07:18:24;;;;;;;1.17;0.85;;;20.10;50.10;;;;;;3146722;28;20052;-76
2021/05/16 07:19:55;;;;;;;0.98;0.85;;;20.20;50.20;;;;;;3146770;28;20056;-76
2021/05/16 07:21:27;;;;;;;0.77;0.75;;;20.20;50.20;;;;;;3147372;28;20125;-76
2021/05/16 07:22:57;;;;;;;0.90;0.80;;;20.20;50.10;;;;;;3146683;28;20044;-77
2021/05/16 07:24:28;;;;;;;0.93;0.75;;;20.20;50.20;;;;;;3147031;28;20102;-76
2021/05/16 07:25:59;;;;;;;0.75;0.73;;;20.20;50.20;;;;;;3146884;28;20107;-76
2021/05/16 07:27:31;;;;;;;0.80;0.80;;;20.10;50.20;;;;;;3147066;28;20102;-76
2021/05/16 07:29:03;;;;;;;1.80;0.90;;;20.20;50.90;;;;;;3146574;28;20048;-76
2021/05/16 07:30:34;;;;;;;0.80;0.80;;;20.20;50.20;;;;;;3145834;28;20512;-76
2021/05/16 07:32:06;;;;;;;1.00;0.90;;;20.20;50.20;;;;;;3146981;28;20048;-77
2021/05/16 07:33:37;;;;;;;1.10;0.90;;;20.20;50.20;;;;;;3146877;28;20500;-76
2021/05/16 07:35:09;;;;;;;1.38;1.10;;;20.20;50.20;;;;;;3147620;28;20052;-76
2021/05/16 07:36:41;;;;;;;0.80;0.75;;;20.10;50.20;;;;;;3147638;28;20044;-76
2021/05/16 07:38:11;;;;;;;0.88;0.85;;;20.10;50.20;;;;;;3147406;28;20053;-76
2021/05/16 07:39:42;;;;;;;1.00;0.90;;;20.20;50.20;;;;;;3147353;28;20063;-76
2021/05/16 07:41:14;;;;;;;0.90;0.85;;;20.20;50.30;;;;;;3147032;28;20055;-76
2021/05/16 07:42:46;;;;;;;1.02;0.90;;;20.10;50.30;;;;;;3146650;28;20053;-76
2021/05/16 07:44:17;;;;;;;1.00;0.90;;;20.10;50.30;;;;;;3146392;28;20052;-76
2021/05/16 07:45:48;;;;;;;1.00;0.90;;;20.10;50.30;;;;;;3145715;28;20298;-77
2021/05/16 07:47:18;;;;;;;1.05;0.90;;;20.10;50.30;;;;;;3146710;28;20040;-76
2021/05/16 07:48:50;;;;;;;0.75;0.75;;;20.10;50.30;;;;;;3146220;28;20044;-77
2021/05/16 07:50:21;;;;;;;1.23;0.90;;;20.10;50.30;;;;;;3146748;28;20088;-76
2021/05/16 07:51:51;;;;;;;1.08;0.98;;;20.10;50.30;;;;;;3146512;28;20048;-76
2021/05/16 07:53:23;;;;;;;1.02;0.93;;;20.10;50.30;;;;;;3146396;28;20595;-77
2021/05/16 07:54:54;;;;;;;0.75;0.73;;;20.10;50.30;;;;;;3146426;28;20052;-77
2021/05/16 07:56:25;;;;;;;1.20;1.10;;;20.10;50.30;;;;;;3146917;28;20045;-76